createdAt,value
2019-05-30T00:03:11.190Z,25.87
2019-05-30T00:08:16.232Z,35.60
2019-05-30T00:13:21.070Z,29.33
2019-05-30T00:18:25.855Z,33.93
2019-05-30T00:23:30.570Z,31.03
2019-05-30T00:28:35.315Z,25.33
2019-05-30T00:33:39.970Z,17.07
2019-05-30T00:38:44.629Z,22.30
2019-05-30T00:43:49.365Z,24.20
2019-05-30T00:48:56.272Z,16.77
2019-05-30T00:54:01.131Z,12.77
2019-05-30T00:59:06.953Z,15.80
2019-05-30T01:04:11.830Z,13.08
2019-05-30T01:09:16.420Z,13.83
2019-05-30T01:14:21.142Z,11.30
2019-05-30T01:19:25.875Z,10.93
2019-05-30T01:24:30.768Z,15.13
2019-05-30T01:29:35.480Z,12.07
2019-05-30T01:34:40.107Z,17.03
2019-05-30T01:39:44.833Z,21.23
2019-05-30T01:44:49.557Z,21.75
2019-05-30T01:49:54.262Z,13.70
2019-05-30T01:54:58.935Z,15.27
2019-05-30T02:00:10.851Z,31.53
2019-05-30T02:05:10.630Z,37.40
2019-05-30T02:10:16.026Z,38.15
2019-05-30T02:15:20.840Z,28.43
2019-05-30T02:20:25.556Z,30.47
2019-05-30T02:25:30.745Z,25.60
2019-05-30T02:30:35.690Z,18.83
2019-05-30T02:35:40.437Z,13.73
2019-05-30T02:40:45.052Z,13.67
2019-05-30T02:45:49.720Z,12.60
2019-05-30T02:50:54.480Z,13.63
2019-05-30T02:55:59.357Z,13.07
2019-05-30T03:01:06.343Z,10.40
2019-05-30T03:06:13.534Z,12.07
2019-05-30T03:11:17.091Z,15.33
2019-05-30T03:16:21.812Z,17.17
2019-05-30T03:21:26.837Z,18.17
2019-05-30T03:26:31.456Z,13.37
2019-05-30T03:31:37.123Z,16.47
2019-05-30T03:36:42.006Z,15.37
2019-05-30T03:41:46.932Z,15.00
2019-05-30T03:46:54.515Z,15.20
2019-05-30T03:52:01.723Z,13.47
2019-05-30T03:57:14.005Z,12.93
2019-05-30T04:02:26.228Z,13.60
2019-05-30T04:07:31.815Z,13.63
2019-05-30T04:12:54.419Z,16.73
2019-05-30T04:17:59.086Z,14.58
2019-05-30T04:23:03.854Z,14.83
2019-05-30T04:28:09.745Z,13.98
2019-05-30T04:33:25.799Z,11.70
2019-05-30T04:38:21.038Z,12.53
2019-05-30T04:43:25.717Z,10.67
2019-05-30T04:48:30.555Z,13.00
2019-05-30T04:53:36.140Z,10.70
2019-05-30T04:58:42.604Z,10.83
2019-05-30T05:03:47.290Z,12.20
2019-05-30T05:08:51.985Z,13.58
2019-05-30T05:13:56.655Z,12.73
2019-05-30T05:19:01.291Z,11.70
2019-05-30T05:24:06.014Z,12.93
2019-05-30T05:29:10.642Z,16.17
2019-05-30T05:34:16.565Z,14.15
2019-05-30T05:39:22.227Z,12.95
2019-05-30T05:44:27.246Z,15.72
2019-05-30T05:49:31.950Z,11.93
2019-05-30T05:54:36.599Z,10.33
2019-05-30T05:59:41.286Z,13.90
2019-05-30T06:04:46.007Z,17.27
2019-05-30T06:09:50.645Z,12.97
2019-05-30T06:14:55.271Z,12.90
2019-05-30T06:20:00.175Z,12.03
2019-05-30T06:25:05.557Z,11.08
2019-05-30T06:30:10.556Z,11.33
2019-05-30T06:35:15.625Z,10.80
2019-05-30T06:40:21.399Z,10.30
2019-05-30T06:45:26.844Z,11.00
2019-05-30T06:50:31.626Z,9.90
2019-05-30T06:55:36.667Z,8.93
2019-05-30T07:00:41.411Z,7.37
2019-05-30T07:05:46.895Z,6.83
2019-05-30T07:10:51.949Z,8.00
2019-05-30T07:15:57.235Z,7.85
2019-05-30T07:21:02.179Z,8.15
2019-05-30T07:26:07.118Z,5.55
2019-05-30T07:31:12.203Z,7.05
2019-05-30T07:36:16.856Z,6.65
2019-05-30T07:41:21.570Z,6.58
2019-05-30T07:46:26.761Z,6.27
2019-05-30T07:51:32.632Z,5.90
2019-05-30T07:56:38.649Z,5.77
2019-05-30T08:01:43.336Z,6.42
2019-05-30T08:06:48.126Z,7.70
2019-05-30T08:11:53.035Z,8.10
2019-05-30T08:16:57.818Z,7.33
2019-05-30T08:22:02.932Z,6.70
2019-05-30T08:27:07.723Z,6.87
2019-05-30T08:32:12.471Z,7.55
2019-05-30T08:37:17.231Z,7.30
2019-05-30T08:42:21.973Z,6.03
2019-05-30T08:47:26.823Z,6.37
2019-05-30T08:52:32.378Z,6.97
2019-05-30T08:57:38.761Z,5.97
2019-05-30T09:02:43.572Z,5.33
2019-05-30T09:07:48.831Z,6.33
2019-05-30T09:12:54.270Z,6.07
2019-05-30T09:17:59.357Z,5.70
2019-05-30T09:23:04.212Z,5.92
2019-05-30T09:28:08.951Z,5.73
2019-05-30T09:33:13.848Z,5.42
2019-05-30T09:38:18.812Z,6.93
2019-05-30T09:43:23.502Z,6.27
2019-05-30T09:48:28.351Z,5.63
2019-05-30T09:53:33.942Z,5.77
2019-05-30T09:58:39.681Z,5.33
2019-05-30T10:03:45.185Z,5.22
2019-05-30T10:08:52.999Z,5.58
2019-05-30T10:13:57.994Z,6.60
2019-05-30T10:19:02.792Z,6.90
2019-05-30T10:24:07.604Z,5.83
2019-05-30T10:29:12.502Z,6.22
2019-05-30T10:34:17.850Z,6.33
2019-05-30T10:39:23.091Z,5.22
2019-05-30T10:44:27.969Z,4.87
2019-05-30T10:49:34.956Z,4.35
2019-05-30T10:54:39.773Z,4.17
2019-05-30T10:59:45.964Z,4.75
2019-05-30T11:04:51.410Z,5.30
2019-05-30T11:10:03.091Z,4.92
2019-05-30T11:15:08.619Z,5.10
2019-05-30T11:20:13.553Z,4.78
2019-05-30T11:25:18.425Z,4.97
2019-05-30T11:30:23.568Z,4.40
2019-05-30T11:35:28.584Z,4.75
2019-05-30T11:40:33.651Z,3.53
2019-05-30T11:45:38.730Z,4.00
2019-05-30T11:50:43.827Z,5.03
2019-05-30T11:55:50.121Z,4.67
2019-05-30T12:00:56.361Z,3.80
2019-05-30T12:06:01.274Z,4.00
2019-05-30T12:11:06.029Z,4.27
2019-05-30T12:16:10.974Z,4.30
2019-05-30T12:21:16.291Z,3.60
2019-05-30T12:26:20.934Z,4.80
2019-05-30T12:31:25.799Z,4.95
2019-05-30T12:36:30.630Z,3.57
2019-05-30T12:41:35.623Z,4.60
2019-05-30T12:46:40.590Z,3.45
2019-05-30T12:51:45.378Z,3.80
2019-05-30T12:56:50.117Z,3.43
2019-05-30T13:01:56.793Z,3.07
2019-05-30T13:07:01.786Z,3.57
2019-05-30T13:12:07.040Z,3.62
2019-05-30T13:17:11.799Z,3.40
2019-05-30T13:22:17.128Z,3.67
2019-05-30T13:27:22.143Z,3.85
2019-05-30T13:32:26.833Z,4.20
2019-05-30T13:37:31.490Z,3.60
2019-05-30T13:42:36.488Z,4.93
2019-05-30T13:47:41.399Z,4.97
2019-05-30T13:52:46.147Z,4.23
2019-05-30T13:57:51.010Z,4.00
2019-05-30T14:02:56.745Z,5.63
2019-05-30T14:08:02.679Z,5.03
2019-05-30T14:13:08.909Z,5.05
2019-05-30T14:18:13.824Z,5.10
2019-05-30T14:23:19.355Z,4.93
2019-05-30T14:28:24.589Z,4.47
2019-05-30T14:33:29.285Z,4.77
2019-05-30T14:38:33.965Z,5.05
2019-05-30T14:43:38.797Z,5.67
2019-05-30T14:48:43.543Z,6.40
2019-05-30T14:53:48.532Z,6.95
2019-05-30T14:58:53.400Z,6.13
2019-05-30T15:03:59.101Z,6.13
2019-05-30T15:09:16.317Z,5.10
2019-05-30T15:14:10.858Z,5.00
2019-05-30T15:19:16.514Z,5.40
2019-05-30T15:24:21.346Z,5.97
2019-05-30T15:29:26.096Z,4.72
2019-05-30T15:34:30.716Z,4.93
2019-05-30T15:39:35.405Z,5.43
2019-05-30T15:44:40.293Z,5.47
2019-05-30T15:49:46.065Z,5.13
2019-05-30T15:54:51.099Z,5.37
2019-05-30T15:59:55.791Z,5.47
2019-05-30T16:05:00.673Z,5.00
2019-05-30T16:10:06.046Z,5.17
2019-05-30T16:15:11.781Z,5.33
2019-05-30T16:20:17.891Z,4.70
2019-05-30T16:25:23.108Z,5.62
2019-05-30T16:30:27.790Z,6.03
2019-05-30T16:35:32.865Z,6.17
2019-05-30T16:40:37.601Z,7.28
2019-05-30T16:45:42.361Z,7.03
2019-05-30T16:50:47.132Z,8.38
2019-05-30T16:55:51.845Z,7.57
2019-05-30T17:00:56.510Z,7.33
2019-05-30T17:06:01.243Z,8.20
2019-05-30T17:11:06.109Z,6.90
2019-05-30T17:16:10.921Z,8.20
2019-05-30T17:21:16.455Z,6.80
2019-05-30T17:26:21.320Z,8.23
2019-05-30T17:31:26.223Z,7.37
2019-05-30T17:36:31.076Z,7.20
2019-05-30T17:41:35.845Z,7.27
2019-05-30T17:46:40.485Z,5.95
2019-05-30T17:51:45.506Z,6.10
2019-05-30T17:56:50.378Z,4.80
2019-05-30T18:01:55.165Z,4.90
2019-05-30T18:06:59.985Z,5.43
2019-05-30T18:12:04.584Z,6.70
2019-05-30T18:17:09.529Z,6.57
2019-05-30T18:22:14.585Z,6.60
2019-05-30T18:27:19.389Z,3.90
2019-05-30T18:32:24.264Z,3.23
2019-05-30T18:37:29.007Z,3.20
2019-05-30T18:42:33.809Z,3.40
2019-05-30T18:47:38.558Z,3.77
2019-05-30T19:03:48.970Z,5.50
2019-05-30T19:08:53.876Z,4.23
2019-05-30T19:13:59.381Z,4.40
2019-05-30T19:19:04.394Z,4.03
2019-05-30T19:24:09.407Z,4.60
2019-05-30T19:29:14.621Z,4.33
2019-05-30T19:34:19.981Z,4.53
2019-05-30T19:39:24.844Z,4.23
2019-05-30T19:44:29.974Z,4.33
2019-05-30T19:49:34.806Z,4.40
2019-05-30T19:54:39.680Z,4.73
2019-05-30T19:59:44.622Z,4.03
2019-05-30T20:04:49.536Z,4.50
2019-05-30T20:10:01.360Z,3.77
2019-05-30T20:15:01.321Z,4.13
2019-05-30T20:20:07.460Z,5.08
2019-05-30T20:25:12.833Z,5.10
2019-05-30T20:30:18.390Z,4.80
2019-05-30T20:35:23.133Z,3.77
2019-05-30T20:40:27.940Z,4.93
2019-05-30T20:45:32.837Z,4.37
2019-05-30T20:50:37.663Z,4.80
2019-05-30T20:55:42.582Z,5.23
2019-05-30T21:00:47.460Z,5.30
2019-05-30T21:05:52.386Z,5.60
2019-05-30T21:10:58.978Z,5.97
2019-05-30T21:16:04.733Z,5.17
2019-05-30T21:21:09.620Z,5.40
2019-05-30T21:26:14.252Z,7.13
2019-05-30T21:31:19.050Z,4.87
2019-05-30T21:36:26.623Z,4.87
2019-05-30T21:41:30.346Z,4.77
2019-05-30T21:46:35.360Z,4.80
2019-05-30T21:51:41.251Z,4.93
2019-05-30T21:56:46.171Z,6.90
2019-05-30T22:01:56.903Z,6.97
2019-05-30T22:06:57.420Z,7.20
2019-05-30T22:12:02.238Z,8.67
2019-05-30T22:17:07.241Z,8.50
2019-05-30T22:22:11.940Z,9.40
2019-05-30T22:27:16.890Z,9.57
2019-05-30T22:32:21.743Z,8.80
2019-05-30T22:37:26.421Z,10.43
2019-05-30T22:42:31.220Z,10.83
2019-05-30T22:47:36.300Z,10.73
2019-05-30T22:52:41.059Z,11.97
2019-05-30T22:57:46.399Z,10.67
2019-05-30T23:02:51.931Z,10.93
2019-05-30T23:07:56.809Z,9.70
2019-05-30T23:13:01.690Z,16.00
2019-05-30T23:18:06.547Z,16.07
2019-05-30T23:23:11.429Z,14.20
2019-05-30T23:28:16.086Z,10.03
2019-05-30T23:33:20.800Z,8.67
2019-05-30T23:38:25.461Z,7.97
2019-05-30T23:43:30.153Z,6.30
2019-05-30T23:48:35.013Z,7.50
2019-05-30T23:53:39.769Z,7.27
2019-05-30T23:58:44.506Z,5.93
